Time;durP1;ratioP1;P1;durP2;ratioP2;P2;SDS_P1;SDS_P2;PMS_P1;PMS_P2;Temp;Humidity;BMP_temperature;BMP_pressure;BME280_temperature;BME280_humidity;BME280_pressure;Samples;Min_cycle;Max_cycle;Signal;HPM_P1;HPM_P2
2022/06/04 00:01:34;;;;;;;1999.90;999.90;;;17.40;1.00;;;;;;5120068;28;20204;-61
2022/06/04 00:04:00;;;;;;;1999.90;999.90;;;17.40;1.00;;;;;;5116786;28;20209;-61
2022/06/04 00:06:27;;;;;;;1999.90;999.90;;;17.30;1.00;;;;;;5115968;28;20205;-61
2022/06/04 00:08:54;;;;;;;1999.90;999.90;;;17.30;1.00;;;;;;5115465;28;20195;-61
2022/06/04 00:16:52;;;;;;;1999.90;999.90;;;17.20;1.00;;;;;;5115666;28;20217;-61
2022/06/04 00:19:19;;;;;;;1999.90;999.90;;;17.10;1.00;;;;;;5115568;28;20195;-60
2022/06/04 00:21:48;;;;;;;1999.90;999.90;;;17.10;1.00;;;;;;5115042;28;20684;-61
2022/06/04 00:24:15;;;;;;;1999.90;999.90;;;17.10;30.80;;;;;;5115510;28;20207;-61
2022/06/04 00:26:42;;;;;;;1999.90;999.90;;;17.00;43.70;;;;;;5115375;28;20205;-61
2022/06/04 00:29:12;;;;;;;1999.90;999.90;;;17.00;99.90;;;;;;5115410;28;20236;-61
2022/06/04 00:31:39;;;;;;;1999.90;999.90;;;17.00;99.90;;;;;;5115015;28;20184;-60
2022/06/04 00:34:07;;;;;;;1999.90;999.90;;;16.90;99.90;;;;;;5115162;28;20200;-60
2022/06/04 00:36:34;;;;;;;1999.90;999.90;;;16.90;99.90;;;;;;5114878;28;20199;-61
2022/06/04 00:39:01;;;;;;;1999.90;999.90;;;16.80;99.90;;;;;;5114773;28;20235;-61
2022/06/04 00:41:37;;;;;;;1999.90;999.90;;;16.80;99.90;;;;;;5115043;28;20203;-61
2022/06/04 00:44:44;;;;;;;1999.90;999.90;;;16.70;99.90;;;;;;5115115;28;20187;-61
2022/06/04 00:47:20;;;;;;;1999.90;999.90;;;16.70;99.90;;;;;;5114645;28;20248;-61
2022/06/04 00:49:47;;;;;;;1999.90;999.90;;;16.70;99.90;;;;;;5114974;28;20182;-60
2022/06/04 00:52:16;;;;;;;1999.90;999.90;;;16.60;99.90;;;;;;5114825;28;20209;-61
2022/06/04 00:54:46;;;;;;;1999.90;999.90;;;16.60;99.90;;;;;;5114896;28;20211;-61
2022/06/04 00:57:34;;;;;;;1999.90;999.90;;;16.60;99.90;;;;;;5114873;28;20208;-61
2022/06/04 01:00:05;;;;;;;1999.90;999.90;;;16.50;99.90;;;;;;5114148;28;20560;-60
2022/06/04 01:02:49;;;;;;;1999.90;999.90;;;16.50;99.90;;;;;;5114377;28;20683;-61
2022/06/04 01:05:26;;;;;;;1999.90;999.90;;;16.40;1.00;;;;;;5113560;28;20222;-61
2022/06/04 01:08:20;;;;;;;1999.90;999.90;;;16.40;1.00;;;;;;5114261;28;20190;-60
2022/06/04 01:10:57;;;;;;;1999.90;999.90;;;16.30;1.00;;;;;;5112148;28;20530;-60
2022/06/04 01:13:41;;;;;;;1999.90;999.90;;;16.30;1.00;;;;;;5111109;28;20182;-60
2022/06/04 01:16:16;;;;;;;1999.90;999.90;;;16.30;1.00;;;;;;5111518;28;20186;-60
2022/06/04 01:18:53;;;;;;;1999.90;999.90;;;16.30;3.90;;;;;;5111346;28;20196;-61
2022/06/04 01:21:25;;;;;;;1999.90;999.90;;;16.30;84.40;;;;;;5113672;28;20193;-60
2022/06/04 01:24:25;;;;;;;1999.90;999.90;;;16.20;99.90;;;;;;5113529;28;20231;-60
2022/06/04 01:27:13;;;;;;;1999.90;999.90;;;16.20;99.90;;;;;;5107111;28;20215;-61
2022/06/04 01:29:58;;;;;;;1999.90;999.90;;;16.20;99.90;;;;;;5113562;28;20180;-61
2022/06/04 01:32:29;;;;;;;1999.90;999.90;;;16.20;99.90;;;;;;5111593;28;20178;-61
2022/06/04 01:35:08;;;;;;;1999.90;999.90;;;16.10;99.90;;;;;;5113633;28;20183;-60
2022/06/04 01:37:39;;;;;;;1999.90;999.90;;;16.10;1.00;;;;;;5113687;28;20280;-60
2022/06/04 01:42:59;;;;;;;1999.90;999.90;;;16.00;1.00;;;;;;5113157;28;20233;-60
2022/06/04 01:45:28;;;;;;;1999.90;999.90;;;16.00;1.00;;;;;;5115115;28;20205;-60
2022/06/04 01:47:58;;;;;;;1999.90;999.90;;;16.00;1.00;;;;;;5115470;28;20206;-60
2022/06/04 01:50:29;;;;;;;1999.90;999.90;;;15.90;1.00;;;;;;5113829;28;20182;-61
2022/06/04 01:52:59;;;;;;;1999.90;999.90;;;15.90;1.00;;;;;;5113745;28;20187;-61
2022/06/04 01:55:31;;;;;;;1999.90;999.90;;;15.90;1.00;;;;;;5113750;28;20193;-61
2022/06/04 01:58:03;;;;;;;1999.90;999.90;;;15.90;4.80;;;;;;5113676;28;20549;-60
2022/06/04 02:00:36;;;;;;;1999.90;999.90;;;15.80;46.50;;;;;;5113620;28;20185;-60
2022/06/04 02:03:08;;;;;;;1999.90;999.90;;;15.80;99.90;;;;;;5113538;28;20217;-60
2022/06/04 02:05:42;;;;;;;1999.90;999.90;;;15.80;95.30;;;;;;5113409;28;20190;-60
2022/06/04 02:08:13;;;;;;;1999.90;999.90;;;15.80;99.90;;;;;;5113500;28;20182;-61
2022/06/04 02:10:44;;;;;;;1999.90;999.90;;;15.70;99.90;;;;;;5113483;28;20534;-60
2022/06/04 02:13:15;;;;;;;1999.90;999.90;;;15.70;99.90;;;;;;5113157;28;20646;-61
2022/06/04 02:15:49;;;;;;;1999.90;999.90;;;15.60;99.90;;;;;;5113098;28;20676;-61
2022/06/04 02:18:17;;;;;;;1999.90;999.90;;;15.60;99.90;;;;;;5113405;28;20217;-61
2022/06/04 02:20:43;;;;;;;1999.90;999.90;;;15.60;1.00;;;;;;5113228;28;20641;-60
2022/06/04 02:23:11;;;;;;;1999.90;999.90;;;15.60;1.00;;;;;;5113245;28;20304;-62
2022/06/04 02:25:38;;;;;;;1999.90;999.90;;;15.50;1.00;;;;;;5113267;28;20215;-61
2022/06/04 02:28:07;;;;;;;1999.90;999.90;;;15.50;1.00;;;;;;5113196;28;20635;-62
2022/06/04 02:30:46;;;;;;;1999.90;999.90;;;15.50;1.00;;;;;;5112822;28;20226;-62
2022/06/04 02:33:23;;;;;;;1999.90;999.90;;;15.50;1.00;;;;;;5113178;28;20182;-60
2022/06/04 02:35:57;;;;;;;1999.90;999.90;;;15.40;1.00;;;;;;5112827;28;20627;-61
2022/06/04 02:38:28;;;;;;;1999.90;999.90;;;15.30;1.00;;;;;;5112480;28;20229;-61
2022/06/04 02:41:00;;;;;;;1999.90;999.90;;;15.30;27.20;;;;;;5113108;28;20269;-61
2022/06/04 02:43:38;;;;;;;1999.90;999.90;;;15.20;93.40;;;;;;5112952;28;20212;-61
2022/06/04 02:46:15;;;;;;;1999.90;999.90;;;15.20;99.90;;;;;;5112997;28;20276;-60
2022/06/04 02:48:47;;;;;;;1999.90;999.90;;;15.10;99.90;;;;;;5113035;28;20543;-61
2022/06/04 02:51:20;;;;;;;1999.90;999.90;;;15.00;99.90;;;;;;5115542;28;20227;-61
2022/06/04 02:53:49;;;;;;;1999.90;999.90;;;15.00;1.00;;;;;;5114394;28;20174;-61
2022/06/04 02:56:20;;;;;;;1999.90;999.90;;;14.90;1.00;;;;;;5117165;28;20197;-61
2022/06/04 02:58:52;;;;;;;1999.90;999.90;;;14.80;32.80;;;;;;5117172;28;20178;-61
2022/06/04 03:01:22;;;;;;;1999.90;999.90;;;14.80;99.90;;;;;;5116766;28;20672;-62
2022/06/04 03:03:49;;;;;;;1999.90;999.90;;;14.80;99.90;;;;;;5116888;28;20224;-60
2022/06/04 03:06:30;;;;;;;1999.90;999.90;;;14.70;99.90;;;;;;5116943;28;20205;-61
2022/06/04 03:08:58;;;;;;;1999.90;999.90;;;14.70;1.00;;;;;;5116655;28;20196;-61
2022/06/04 03:11:26;;;;;;;1999.90;999.90;;;14.70;1.00;;;;;;5116868;28;20587;-61
2022/06/04 03:13:53;;;;;;;1999.90;999.90;;;14.60;1.00;;;;;;5116527;28;20727;-61
2022/06/04 03:16:21;;;;;;;1999.90;999.90;;;14.60;99.90;;;;;;5116795;28;20201;-61
2022/06/04 03:18:48;;;;;;;1999.90;999.90;;;14.60;99.90;;;;;;5116748;28;20258;-61
2022/06/04 03:21:15;;;;;;;1999.90;999.90;;;14.60;99.90;;;;;;5116615;28;20236;-61
2022/06/04 03:23:42;;;;;;;1999.90;999.90;;;14.60;99.90;;;;;;5116650;28;20227;-61
2022/06/04 03:26:08;;;;;;;1999.90;999.90;;;14.60;99.90;;;;;;5116633;28;20193;-61
2022/06/04 03:28:35;;;;;;;1999.90;999.90;;;14.50;99.90;;;;;;5116489;28;20198;-61
2022/06/04 03:31:02;;;;;;;1999.90;999.90;;;14.50;1.00;;;;;;5116578;28;20563;-61
2022/06/04 03:33:30;;;;;;;1999.90;999.90;;;14.50;1.00;;;;;;5116342;28;20197;-60
2022/06/04 03:35:57;;;;;;;1999.90;999.90;;;14.50;1.00;;;;;;5116321;28;20192;-61
2022/06/04 03:38:25;;;;;;;1999.90;999.90;;;14.50;1.00;;;;;;5116092;28;20240;-61
2022/06/04 03:40:52;;;;;;;1999.90;999.90;;;14.40;99.90;;;;;;5116045;28;20731;-61
2022/06/04 03:43:19;;;;;;;1999.90;999.90;;;14.40;99.90;;;;;;5116252;28;20217;-61
2022/06/04 03:45:46;;;;;;;1999.90;999.90;;;14.40;99.90;;;;;;5115900;28;20673;-61
2022/06/04 03:48:13;;;;;;;1999.90;999.90;;;14.40;1.00;;;;;;5116165;28;20640;-60
2022/06/04 03:50:41;;;;;;;1999.90;999.90;;;14.40;1.00;;;;;;5116052;28;20201;-61
2022/06/04 03:53:08;;;;;;;1999.90;999.90;;;14.30;99.90;;;;;;5116152;28;20204;-61
2022/06/04 03:55:35;;;;;;;1999.90;999.90;;;14.30;1.00;;;;;;5118206;28;20202;-61
2022/06/04 03:58:02;;;;;;;1999.90;999.90;;;14.30;1.00;;;;;;5116117;28;20200;-60
2022/06/04 04:00:31;;;;;;;1999.90;999.90;;;14.40;1.00;;;;;;5116012;28;20561;-60
2022/06/04 04:03:00;;;;;;;1999.90;999.90;;;14.40;19.70;;;;;;5115815;28;20226;-60
2022/06/04 04:05:29;;;;;;;1999.90;999.90;;;14.40;1.00;;;;;;5114945;28;20194;-60
2022/06/04 04:07:59;;;;;;;1999.90;999.90;;;14.40;56.20;;;;;;5115522;28;20233;-60
2022/06/04 04:10:27;;;;;;;1999.90;999.90;;;14.40;99.90;;;;;;5115787;28;20213;-60
2022/06/04 04:12:54;;;;;;;1999.90;999.90;;;14.40;99.90;;;;;;5115802;28;20202;-61
2022/06/04 04:15:22;;;;;;;1999.90;999.90;;;14.40;99.90;;;;;;5115685;28;20201;-61
2022/06/04 04:17:49;;;;;;;1999.90;999.90;;;14.40;1.00;;;;;;5115702;28;20213;-60
2022/06/04 04:20:18;;;;;;;1999.90;999.90;;;14.40;1.00;;;;;;5115682;28;20198;-60
2022/06/04 04:22:46;;;;;;;1999.90;999.90;;;14.40;99.90;;;;;;5115334;28;20201;-61
2022/06/04 04:25:17;;;;;;;1999.90;999.90;;;14.50;99.90;;;;;;5115503;28;20193;-61
2022/06/04 04:27:44;;;;;;;1999.90;999.90;;;14.40;99.90;;;;;;5115481;28;20205;-61
2022/06/04 04:30:14;;;;;;;1999.90;999.90;;;14.50;99.90;;;;;;5115379;28;20557;-61
2022/06/04 04:32:41;;;;;;;1999.90;999.90;;;14.50;1.00;;;;;;5115306;28;20193;-60
2022/06/04 04:35:15;;;;;;;1999.90;999.90;;;14.60;1.00;;;;;;5115180;28;20297;-61
2022/06/04 04:37:42;;;;;;;1999.90;999.90;;;14.60;1.00;;;;;;5115088;28;20185;-61
2022/06/04 04:40:10;;;;;;;1999.90;999.90;;;14.60;82.50;;;;;;5115278;28;20210;-61
2022/06/04 04:42:39;;;;;;;1999.90;999.90;;;14.60;11.30;;;;;;5115147;28;20520;-62
2022/06/04 04:45:08;;;;;;;1999.90;999.90;;;14.70;99.90;;;;;;5115021;28;20217;-60
2022/06/04 04:47:35;;;;;;;1999.90;999.90;;;14.70;99.90;;;;;;5115085;28;20201;-61
2022/06/04 04:50:02;;;;;;;1999.90;999.90;;;14.70;1.00;;;;;;5114711;28;20201;-61
2022/06/04 04:52:29;;;;;;;1999.90;999.90;;;14.80;1.00;;;;;;5114553;28;20688;-60
2022/06/04 04:54:56;;;;;;;1999.90;999.90;;;14.70;1.00;;;;;;5114921;28;20243;-61
2022/06/04 04:57:23;;;;;;;1999.90;999.90;;;14.80;1.00;;;;;;5114848;28;20198;-60
2022/06/04 04:59:52;;;;;;;1999.90;999.90;;;14.80;99.90;;;;;;5116559;28;20684;-61
2022/06/04 05:02:18;;;;;;;1999.90;999.90;;;14.90;1.00;;;;;;5114821;28;20194;-60
2022/06/04 05:04:45;;;;;;;1999.90;999.90;;;14.90;1.00;;;;;;5114434;28;20255;-61
2022/06/04 05:07:12;;;;;;;1999.90;999.90;;;15.00;1.00;;;;;;5114654;28;20216;-60
2022/06/04 05:09:40;;;;;;;1999.90;999.90;;;15.00;99.90;;;;;;5114644;28;20201;-61
2022/06/04 05:12:08;;;;;;;1999.90;999.90;;;15.00;99.90;;;;;;5114500;28;20197;-61
2022/06/04 05:14:35;;;;;;;1999.90;999.90;;;15.00;99.90;;;;;;5114248;28;20234;-60
2022/06/04 05:17:04;;;;;;;1999.90;999.90;;;15.20;99.90;;;;;;5113354;28;20197;-60
2022/06/04 05:19:31;;;;;;;1999.90;999.90;;;15.30;22.50;;;;;;5114412;28;20205;-60
2022/06/04 05:21:59;;;;;;;1999.90;999.90;;;15.30;99.90;;;;;;5114235;28;20226;-61
2022/06/04 05:24:28;;;;;;;1999.90;999.90;;;15.30;99.90;;;;;;5113915;28;20248;-61
2022/06/04 05:26:56;;;;;;;1999.90;999.90;;;15.40;99.90;;;;;;5114277;28;20563;-61
2022/06/04 05:29:23;;;;;;;1999.90;999.90;;;15.50;99.90;;;;;;5113932;28;20198;-61
2022/06/04 05:31:52;;;;;;;1999.90;999.90;;;15.50;99.90;;;;;;5114296;28;20551;-61
2022/06/04 05:34:21;;;;;;;1999.90;999.90;;;15.60;99.90;;;;;;5113985;28;20195;-60
2022/06/04 05:36:48;;;;;;;1999.90;999.90;;;15.70;24.00;;;;;;5114115;28;20206;-60
2022/06/04 05:39:16;;;;;;;1999.90;999.90;;;15.80;99.90;;;;;;5113597;28;20691;-60
2022/06/04 05:41:44;;;;;;;1999.90;999.90;;;15.90;1.00;;;;;;5113982;28;20201;-61
2022/06/04 05:44:11;;;;;;;1999.90;999.90;;;15.90;1.00;;;;;;5113982;28;20209;-59
2022/06/04 05:46:40;;;;;;;1999.90;999.90;;;16.00;1.00;;;;;;5113857;28;20194;-60
2022/06/04 05:49:07;;;;;;;1999.90;999.90;;;16.00;1.00;;;;;;5113835;28;20195;-60
2022/06/04 05:51:36;;;;;;;1999.90;999.90;;;16.10;1.00;;;;;;5113691;28;20571;-61
2022/06/04 05:54:03;;;;;;;1999.90;999.90;;;16.30;99.90;;;;;;5113766;28;20292;-61
2022/06/04 05:56:33;;;;;;;1999.90;999.90;;;16.30;99.90;;;;;;5113708;28;20208;-61
2022/06/04 05:59:02;;;;;;;1999.90;999.90;;;16.30;1.00;;;;;;5113391;28;20197;-60
2022/06/04 06:01:32;;;;;;;1999.90;999.90;;;16.20;1.00;;;;;;5113550;28;20203;-61
2022/06/04 06:03:59;;;;;;;1999.90;999.90;;;16.20;99.90;;;;;;5113305;28;20303;-61
2022/06/04 06:06:28;;;;;;;1999.90;999.90;;;16.10;1.00;;;;;;5113583;28;20205;-60
2022/06/04 06:08:58;;;;;;;1999.90;999.90;;;16.20;99.90;;;;;;5115345;28;20224;-61
2022/06/04 06:11:25;;;;;;;1999.90;999.90;;;16.20;99.90;;;;;;5113786;28;20192;-60
2022/06/04 06:13:53;;;;;;;1999.90;999.90;;;16.30;1.00;;;;;;5113468;28;20202;-60
2022/06/04 06:16:22;;;;;;;1999.90;999.90;;;16.30;1.00;;;;;;5113393;28;20233;-60
2022/06/04 06:18:50;;;;;;;1999.90;999.90;;;16.20;1.00;;;;;;5113068;28;20202;-60
2022/06/04 06:21:19;;;;;;;1999.90;999.90;;;16.20;99.90;;;;;;5113249;28;20256;-60
2022/06/04 06:23:47;;;;;;;1999.90;999.90;;;16.20;99.90;;;;;;5113207;28;20269;-61
2022/06/04 06:26:18;;;;;;;1999.90;999.90;;;16.10;99.90;;;;;;5112941;28;20197;-61
2022/06/04 06:28:45;;;;;;;1999.90;999.90;;;16.20;99.90;;;;;;5112705;28;20204;-60
2022/06/04 06:31:15;;;;;;;1999.90;999.90;;;16.20;1.00;;;;;;5113178;28;20243;-60
2022/06/04 06:33:41;;;;;;;1999.90;999.90;;;16.30;88.00;;;;;;5112900;28;20199;-60
2022/06/04 06:36:11;;;;;;;1999.90;999.90;;;16.40;1.00;;;;;;5113017;28;20203;-59
2022/06/04 06:38:38;;;;;;;1999.90;999.90;;;16.40;1.00;;;;;;5112625;28;20758;-61
2022/06/04 06:41:08;;;;;;;1999.90;999.90;;;16.40;1.00;;;;;;5113047;28;20290;-62
2022/06/04 06:43:38;;;;;;;1999.90;999.90;;;16.30;58.40;;;;;;5113030;28;20224;-62
2022/06/04 06:46:06;;;;;;;1999.90;999.90;;;16.20;99.90;;;;;;5113052;28;20910;-61
2022/06/04 06:48:33;;;;;;;1999.90;999.90;;;16.10;99.90;;;;;;5113096;28;20600;-62
2022/06/04 06:51:06;;;;;;;1999.90;999.90;;;15.90;99.90;;;;;;5112929;28;20209;-61
2022/06/04 06:53:33;;;;;;;1999.90;999.90;;;15.90;13.10;;;;;;5112974;28;20190;-62
2022/06/04 06:56:09;;;;;;;1999.90;999.90;;;15.90;1.00;;;;;;5112900;28;20201;-62
2022/06/04 06:58:37;;;;;;;1999.90;999.90;;;16.00;1.00;;;;;;5112923;28;20189;-62
2022/06/04 07:01:04;;;;;;;1999.90;999.90;;;15.80;99.90;;;;;;5112935;28;20208;-62
2022/06/04 07:03:31;;;;;;;1999.90;999.90;;;15.90;99.90;;;;;;5112570;28;20199;-62
2022/06/04 07:05:59;;;;;;;1999.90;999.90;;;16.00;99.90;;;;;;5112849;28;20203;-61
2022/06/04 07:08:27;;;;;;;1999.90;999.90;;;16.00;99.90;;;;;;5112761;28;20198;-61
2022/06/04 07:10:54;;;;;;;1999.90;999.90;;;16.00;99.90;;;;;;5112850;28;20217;-62
2022/06/04 07:13:21;;;;;;;1999.90;999.90;;;16.00;1.00;;;;;;5112804;28;20209;-62
2022/06/04 07:15:49;;;;;;;1999.90;999.90;;;16.10;99.90;;;;;;5112595;28;20203;-62
2022/06/04 07:18:17;;;;;;;1999.90;999.90;;;16.10;99.90;;;;;;5112781;28;20203;-61
2022/06/04 07:20:43;;;;;;;1999.90;999.90;;;16.20;1.00;;;;;;5112280;28;20199;-61
2022/06/04 07:23:11;;;;;;;1999.90;999.90;;;16.10;1.00;;;;;;5112378;28;20220;-61
2022/06/04 07:25:41;;;;;;;1999.90;999.90;;;16.10;99.90;;;;;;5113404;28;20210;-62
2022/06/04 07:28:09;;;;;;;1999.90;999.90;;;16.20;1.00;;;;;;5114716;28;20202;-62
2022/06/04 07:30:36;;;;;;;1999.90;999.90;;;16.30;26.20;;;;;;5112918;28;20201;-61
2022/06/04 07:33:05;;;;;;;1999.90;999.90;;;16.40;1.00;;;;;;5112566;28;20594;-61
2022/06/04 07:35:33;;;;;;;1999.90;999.90;;;16.50;1.00;;;;;;5112505;28;20190;-61
2022/06/04 07:38:00;;;;;;;1999.90;999.90;;;16.60;1.00;;;;;;5112055;28;20250;-61
2022/06/04 07:40:27;;;;;;;1999.90;999.90;;;16.60;99.90;;;;;;5113214;28;20226;-62
2022/06/04 07:42:55;;;;;;;1999.90;999.90;;;16.60;1.00;;;;;;5115983;28;20254;-62
2022/06/04 07:45:22;;;;;;;1999.90;999.90;;;16.70;1.00;;;;;;5116140;28;20221;-61
2022/06/04 07:47:49;;;;;;;1999.90;999.90;;;16.80;99.90;;;;;;5115936;28;20674;-62
2022/06/04 07:50:18;;;;;;;1999.90;999.90;;;16.90;30.80;;;;;;5116183;28;20207;-61
2022/06/04 07:52:44;;;;;;;1999.90;999.90;;;17.00;1.00;;;;;;5115999;28;20208;-62
2022/06/04 07:55:12;;;;;;;1999.90;999.90;;;17.20;99.90;;;;;;5116058;28;20198;-62
2022/06/04 07:57:40;;;;;;;1999.90;999.90;;;17.40;40.70;;;;;;5115949;28;20204;-62
2022/06/04 08:00:09;;;;;;;1999.90;999.90;;;17.70;99.90;;;;;;5115951;28;20567;-62
2022/06/04 08:02:36;;;;;;;1999.90;999.90;;;18.00;99.90;;;;;;5115850;28;20261;-62
2022/06/04 08:05:03;;;;;;;1999.90;999.90;;;18.40;10.30;;;;;;5115672;28;20603;-62
2022/06/04 08:07:32;;;;;;;1999.90;999.90;;;18.50;99.90;;;;;;5115499;28;20212;-62
2022/06/04 08:09:59;;;;;;;1999.90;999.90;;;18.50;99.90;;;;;;5115427;28;20690;-62
2022/06/04 08:12:30;;;;;;;1999.90;999.90;;;18.40;1.00;;;;;;5115448;28;21012;-62
2022/06/04 08:14:57;;;;;;;1999.90;999.90;;;18.50;6.20;;;;;;5115737;28;20185;-62
2022/06/04 08:17:25;;;;;;;1999.90;999.90;;;18.30;1.00;;;;;;5115250;28;20201;-61
2022/06/04 08:19:52;;;;;;;1999.90;999.90;;;18.40;1.00;;;;;;5115567;28;20212;-61
2022/06/04 08:22:19;;;;;;;1999.90;999.90;;;18.50;1.00;;;;;;5115346;28;20205;-62
2022/06/04 08:24:48;;;;;;;1999.90;999.90;;;18.80;1.00;;;;;;5115385;28;20218;-62
2022/06/04 08:27:16;;;;;;;1999.90;999.90;;;18.90;1.00;;;;;;5115087;28;20828;-62
2022/06/04 08:29:44;;;;;;;1999.90;999.90;;;19.00;99.90;;;;;;5115292;28;20558;-62
2022/06/04 08:32:13;;;;;;;1999.90;999.90;;;19.50;1.00;;;;;;5114706;28;20332;-61
2022/06/04 08:34:40;;;;;;;1999.90;999.90;;;19.80;1.00;;;;;;5114425;28;20191;-62
2022/06/04 08:37:07;;;;;;;1999.90;999.90;;;20.20;1.00;;;;;;5114965;28;20197;-61
2022/06/04 08:39:34;;;;;;;1999.90;999.90;;;20.40;99.90;;;;;;5114467;28;20235;-62
2022/06/04 08:42:16;;;;;;;1999.90;999.90;;;20.80;99.90;;;;;;5114993;28;20225;-61
2022/06/04 08:44:45;;;;;;;1999.90;999.90;;;21.20;99.90;;;;;;5114908;28;20819;-62
2022/06/04 08:47:16;;;;;;;1999.90;999.90;;;21.40;99.90;;;;;;5114845;28;20204;-62
2022/06/04 08:49:47;;;;;;;1999.90;999.90;;;21.10;92.20;;;;;;5114802;28;20186;-63
2022/06/04 08:52:18;;;;;;;1999.90;999.90;;;21.40;18.60;;;;;;5114478;28;20342;-63
2022/06/04 08:57:42;;;;;;;1999.90;999.90;;;20.60;1.00;;;;;;5114343;28;20177;-61
2022/06/04 09:00:17;;;;;;;1999.90;999.90;;;21.50;1.00;;;;;;5114537;28;20185;-62
2022/06/04 09:03:05;;;;;;;1999.90;999.90;;;22.00;1.00;;;;;;5113753;28;20201;-62
2022/06/04 09:06:02;;;;;;;1999.90;999.90;;;22.00;1.00;;;;;;5114076;28;20673;-62
2022/06/04 09:08:39;;;;;;;1999.90;999.90;;;21.90;1.00;;;;;;5113974;28;20197;-62
2022/06/04 09:11:14;;;;;;;1999.90;999.90;;;22.20;1.00;;;;;;5113956;28;20185;-61
2022/06/04 09:13:50;;;;;;;1999.90;999.90;;;22.50;1.00;;;;;;5113938;28;20545;-61
2022/06/04 09:16:32;;;;;;;1999.90;999.90;;;22.10;1.00;;;;;;5114234;28;20180;-60
2022/06/04 09:19:02;;;;;;;1999.90;999.90;;;22.30;1.00;;;;;;5114163;28;20190;-60
2022/06/04 09:21:40;;;;;;;1999.90;999.90;;;22.50;1.00;;;;;;5113617;28;20182;-60
2022/06/04 09:24:07;;;;;;;1999.90;999.90;;;22.30;1.00;;;;;;5113763;28;20221;-60
2022/06/04 09:26:40;;;;;;;1999.90;999.90;;;22.30;1.00;;;;;;5113567;28;20225;-60
2022/06/04 09:29:23;;;;;;;1999.90;999.90;;;22.50;99.90;;;;;;5113580;28;20285;-60
2022/06/04 09:31:59;;;;;;;1999.90;999.90;;;23.10;99.90;;;;;;5113858;28;20235;-60
2022/06/04 09:34:30;;;;;;;1999.90;999.90;;;23.20;99.90;;;;;;5113705;28;20186;-58
2022/06/04 09:36:59;;;;;;;1999.90;999.90;;;23.70;99.90;;;;;;5113843;28;20545;-59
2022/06/04 09:39:28;;;;;;;1999.90;999.90;;;24.20;99.90;;;;;;5112938;28;20239;-59
2022/06/04 09:41:58;;;;;;;1999.90;999.90;;;24.50;99.90;;;;;;5113362;28;20658;-59
2022/06/04 09:44:28;;;;;;;1999.90;999.90;;;24.40;99.90;;;;;;5113201;28;20198;-59
2022/06/04 09:46:58;;;;;;;1999.90;999.90;;;24.60;99.90;;;;;;5113538;28;20254;-59
2022/06/04 09:49:32;;;;;;;1999.90;999.90;;;24.80;99.90;;;;;;5113427;28;20189;-59
2022/06/04 09:52:00;;;;;;;1999.90;999.90;;;24.20;99.90;;;;;;5112852;28;20189;-60
2022/06/04 09:54:30;;;;;;;1999.90;999.90;;;24.70;99.90;;;;;;5113033;28;20193;-60
2022/06/04 09:57:02;;;;;;;1999.90;999.90;;;24.80;67.80;;;;;;5113001;28;20247;-60
2022/06/04 09:59:33;;;;;;;1999.90;999.90;;;24.90;52.70;;;;;;5112640;28;20569;-60
2022/06/04 10:02:01;;;;;;;1999.90;999.90;;;25.10;40.20;;;;;;5112650;28;20587;-59
2022/06/04 10:04:41;;;;;;;1999.90;999.90;;;25.50;1.00;;;;;;5112149;28;20198;-60
2022/06/04 10:07:10;;;;;;;1999.90;999.90;;;25.70;1.00;;;;;;5112616;28;20685;-59
2022/06/04 10:09:56;;;;;;;1999.90;999.90;;;26.20;1.00;;;;;;5112817;28;20690;-60
2022/06/04 10:15:31;;;;;;;1999.90;999.90;;;25.90;1.00;;;;;;5049826;28;20200;-61
2022/06/04 10:18:05;;;;;;;1999.90;999.90;;;25.90;1.00;;;;;;5050033;28;20647;-60
2022/06/04 10:20:32;;;;;;;1999.90;999.90;;;26.20;1.00;;;;;;5049876;28;20195;-60
2022/06/04 10:22:59;;;;;;;1999.90;999.90;;;26.30;1.00;;;;;;5049426;28;20580;-60
2022/06/04 10:25:37;;;;;;;1999.90;999.90;;;26.40;1.00;;;;;;5049740;28;20219;-58
2022/06/04 10:28:17;;;;;;;1999.90;999.90;;;26.60;1.00;;;;;;5049798;28;20661;-61
2022/06/04 10:30:54;;;;;;;1999.90;999.90;;;26.50;1.00;;;;;;5049804;28;20214;-61
2022/06/04 10:33:31;;;;;;;1999.90;999.90;;;26.60;1.00;;;;;;5049322;28;20197;-61
2022/06/04 10:36:12;;;;;;;1999.90;999.90;;;26.50;1.00;;;;;;5049774;28;20546;-60
2022/06/04 10:38:52;;;;;;;1999.90;999.90;;;26.70;1.00;;;;;;5049636;28;20235;-61
2022/06/04 10:41:30;;;;;;;1999.90;999.90;;;27.00;1.00;;;;;;5049654;28;20199;-61
2022/06/04 10:44:18;;;;;;;1999.90;999.90;;;27.00;1.00;;;;;;5049684;28;20205;-61
2022/06/04 10:46:54;;;;;;;1999.90;999.90;;;26.70;1.00;;;;;;5049463;28;20207;-60
2022/06/04 10:49:36;;;;;;;1999.90;999.90;;;26.40;1.00;;;;;;5073376;28;20226;-61
2022/06/04 10:52:13;;;;;;;1999.90;999.90;;;26.60;1.00;;;;;;5112634;28;20192;-61
2022/06/04 10:54:46;;;;;;;1999.90;999.90;;;27.00;1.00;;;;;;5112363;28;20246;-61
2022/06/04 10:57:21;;;;;;;1999.90;999.90;;;27.10;1.00;;;;;;5112307;28;20192;-61
2022/06/04 10:59:55;;;;;;;1999.90;999.90;;;27.30;1.00;;;;;;5112261;28;20642;-64
2022/06/04 11:02:29;;;;;;;1999.90;999.90;;;27.70;1.00;;;;;;5110896;28;20247;-65
2022/06/04 11:05:00;;;;;;;1999.90;999.90;;;27.80;1.00;;;;;;5112456;28;20181;-65
2022/06/04 11:07:42;;;;;;;1999.90;999.90;;;27.80;1.00;;;;;;5112270;28;20618;-66
2022/06/04 11:10:15;;;;;;;1999.90;999.90;;;28.10;99.90;;;;;;5112641;28;20284;-64
2022/06/04 11:12:46;;;;;;;1999.90;999.90;;;28.60;99.90;;;;;;5111814;28;20185;-66
2022/06/04 11:15:20;;;;;;;1999.90;999.90;;;28.30;99.90;;;;;;5114549;28;20193;-65
2022/06/04 11:17:55;;;;;;;1999.90;999.90;;;28.30;99.90;;;;;;5116588;28;20182;-66
2022/06/04 11:20:27;;;;;;;1999.90;999.90;;;27.60;99.90;;;;;;5116531;28;20196;-65
2022/06/04 11:23:16;;;;;;;1999.90;999.90;;;28.20;99.90;;;;;;5116069;28;20634;-67
2022/06/04 11:25:47;;;;;;;1999.90;999.90;;;28.40;99.90;;;;;;5115802;28;20287;-65
2022/06/04 11:28:24;;;;;;;1999.90;999.90;;;29.00;99.90;;;;;;5115859;28;20273;-64
2022/06/04 11:31:00;;;;;;;1999.90;999.90;;;28.80;99.90;;;;;;5115719;28;20185;-64
2022/06/04 11:33:41;;;;;;;1999.90;999.90;;;28.50;99.90;;;;;;5113634;28;20234;-64
2022/06/04 11:36:18;;;;;;;1999.90;999.90;;;28.00;99.90;;;;;;5116298;28;20188;-65
2022/06/04 11:39:02;;;;;;;1999.90;999.90;;;27.80;99.90;;;;;;5115828;28;20248;-66
2022/06/04 11:41:35;;;;;;;1999.90;999.90;;;28.00;99.90;;;;;;5115725;28;20217;-65
2022/06/04 11:44:23;;;;;;;1999.90;999.90;;;27.60;99.90;;;;;;5115598;28;20189;-65
2022/06/04 11:47:03;;;;;;;1999.90;999.90;;;27.90;99.90;;;;;;5115856;28;20209;-64
2022/06/04 11:49:38;;;;;;;1999.90;999.90;;;28.50;99.90;;;;;;5115948;28;20541;-64
2022/06/04 11:52:24;;;;;;;1999.90;999.90;;;29.00;99.90;;;;;;5115053;28;20184;-65
2022/06/04 11:55:12;;;;;;;1999.90;999.90;;;28.90;99.90;;;;;;5115610;28;20186;-63
2022/06/04 11:57:53;;;;;;;1999.90;999.90;;;29.00;99.90;;;;;;5115694;28;20284;-64
2022/06/04 12:00:28;;;;;;;1999.90;999.90;;;28.80;99.90;;;;;;5115344;28;20189;-64
2022/06/04 12:03:02;;;;;;;1999.90;999.90;;;28.70;99.90;;;;;;5113676;28;20212;-63
2022/06/04 12:05:44;;;;;;;1999.90;999.90;;;29.50;99.90;;;;;;5114375;28;20603;-63
2022/06/04 12:08:14;;;;;;;1999.90;999.90;;;29.30;99.90;;;;;;5114471;28;20193;-63
2022/06/04 12:10:54;;;;;;;1999.90;999.90;;;28.80;99.90;;;;;;5114875;28;20178;-63
2022/06/04 12:13:30;;;;;;;1999.90;999.90;;;28.80;99.90;;;;;;5115510;28;20185;-63
2022/06/04 12:16:02;;;;;;;1999.90;999.90;;;28.60;99.90;;;;;;5115446;28;20268;-63
2022/06/04 12:18:33;;;;;;;1999.90;999.90;;;28.70;99.90;;;;;;5114961;28;20538;-63
2022/06/04 12:26:33;;;;;;;1999.90;999.90;;;29.20;99.90;;;;;;5113896;28;20224;-63
2022/06/04 12:29:01;;;;;;;1999.90;999.90;;;28.60;99.90;;;;;;5115284;28;20190;-63
2022/06/04 12:31:36;;;;;;;1999.90;999.90;;;29.00;99.90;;;;;;5115040;28;20200;-63
2022/06/04 12:34:05;;;;;;;1999.90;999.90;;;29.20;99.90;;;;;;5114219;28;20546;-64
2022/06/04 12:36:37;;;;;;;1999.90;999.90;;;29.40;99.90;;;;;;5113230;28;20715;-64
2022/06/04 12:39:07;;;;;;;1999.90;999.90;;;29.40;99.90;;;;;;5113573;28;20233;-63
2022/06/04 12:41:43;;;;;;;1999.90;999.90;;;29.00;99.90;;;;;;5113527;28;20228;-63
2022/06/04 12:44:21;;;;;;;1999.90;999.90;;;29.40;99.90;;;;;;5113815;28;20190;-63